Time;durP1;ratioP1;P1;durP2;ratioP2;P2;SDS_P1;SDS_P2;PMS_P1;PMS_P2;Temp;Humidity;BMP_temperature;BMP_pressure;BME280_temperature;BME280_humidity;BME280_pressure;Samples;Min_cycle;Max_cycle;Signal;HPM_P1;HPM_P2
2023/03/04 00:06:55;;;;;;;11.73;1.88;;;;;;;;;;6300573;22;20026;-91
2023/03/04 00:10:58;;;;;;;17.50;1.80;;;;;;;;;;6309040;22;20019;-91
2023/03/04 00:14:42;;;;;;;8.23;1.33;;;;;;;;;;6108772;23;20018;-91
2023/03/04 00:24:20;;;;;;;10.65;1.15;;;;;;;;;;6069513;23;20035;-90
2023/03/04 00:29:28;;;;;;;4.78;1.10;;;;;;;;;;6017682;23;20462;-91
2023/03/04 00:33:46;;;;;;;8.77;1.27;;;;;;;;;;6008259;23;20378;-89
2023/03/04 00:43:32;;;;;;;7.28;1.45;;;;;;;;;;5802074;24;20110;-91
2023/03/04 00:47:54;;;;;;;10.32;1.40;;;;;;;;;;5748709;24;20089;-91
2023/03/04 00:50:53;;;;;;;4.82;0.85;;;;;;;;;;5044997;28;20139;-82
2023/03/04 00:53:22;;;;;;;6.50;1.10;;;;;;;;;;5030292;28;20049;-82
2023/03/04 00:55:50;;;;;;;7.85;1.33;;;;;;;;;;5048836;28;20046;-82
2023/03/04 00:58:18;;;;;;;9.20;1.40;;;;;;;;;;5046457;28;20038;-83
2023/03/04 01:01:00;;;;;;;5.55;1.20;;;;;;;;;;5032188;28;20042;-83
2023/03/04 01:03:42;;;;;;;9.18;1.30;;;;;;;;;;5009520;28;20057;-83
2023/03/04 01:06:11;;;;;;;6.82;1.38;;;;;;;;;;5013250;28;20412;-83
2023/03/04 01:09:04;;;;;;;9.30;1.45;;;;;;;;;;5035508;28;20070;-83
2023/03/04 01:14:53;;;;;;;9.15;1.30;;;;;;;;;;5048860;28;20042;-83
2023/03/04 01:17:20;;;;;;;8.15;1.52;;;;;;;;;;5008521;28;20598;-82
2023/03/04 01:19:51;;;;;;;6.45;1.70;;;;;;;;;;5031609;28;20060;-83
2023/03/04 01:22:29;;;;;;;6.43;1.17;;;;;;;;;;5048909;28;20114;-82
2023/03/04 01:24:56;;;;;;;3.67;0.95;;;;;;;;;;5017483;28;20503;-82
2023/03/04 01:27:26;;;;;;;10.75;1.45;;;;;;;;;;5018741;28;20076;-83
2023/03/04 01:29:54;;;;;;;8.50;1.45;;;;;;;;;;5048251;28;20474;-83
2023/03/04 01:32:22;;;;;;;5.05;1.10;;;;;;;;;;5016931;28;20061;-83
2023/03/04 01:34:50;;;;;;;9.38;1.35;;;;;;;;;;5031647;28;20068;-83
2023/03/04 01:37:18;;;;;;;9.90;1.42;;;;;;;;;;5033335;28;20052;-83
2023/03/04 01:39:46;;;;;;;9.05;1.58;;;;;;;;;;5024598;28;20045;-82
2023/03/04 01:42:21;;;;;;;3.97;0.95;;;;;;;;;;5025965;28;20038;-82
2023/03/04 01:44:49;;;;;;;4.05;0.85;;;;;;;;;;5009474;28;20047;-83
2023/03/04 01:47:47;;;;;;;5.03;0.85;;;;;;;;;;5035728;28;20490;-83
2023/03/04 01:50:29;;;;;;;10.15;1.50;;;;;;;;;;5016751;28;20038;-83
2023/03/04 01:53:03;;;;;;;5.90;1.10;;;;;;;;;;5017685;28;20038;-83
2023/03/04 01:55:35;;;;;;;6.82;1.00;;;;;;;;;;5018809;28;20087;-83
2023/03/04 01:58:04;;;;;;;2.63;0.98;;;;;;;;;;5024268;28;20057;-83
2023/03/04 02:01:00;;;;;;;6.60;1.10;;;;;;;;;;5026080;28;20030;-83
2023/03/04 02:03:52;;;;;;;4.40;0.73;;;;;;;;;;4998189;28;20587;-83
2023/03/04 02:06:46;;;;;;;6.70;1.13;;;;;;;;;;5019095;28;20042;-83
2023/03/04 02:09:19;;;;;;;14.02;1.25;;;;;;;;;;5018915;28;20041;-83
2023/03/04 02:11:48;;;;;;;8.63;1.15;;;;;;;;;;5001727;28;20048;-83
2023/03/04 02:14:19;;;;;;;11.75;1.17;;;;;;;;;;5017283;28;20038;-83
2023/03/04 02:16:48;;;;;;;4.38;0.90;;;;;;;;;;5013948;28;20049;-83
2023/03/04 02:19:52;;;;;;;3.53;1.58;;;;;;;;;;5009941;28;20037;-83
2023/03/04 02:22:20;;;;;;;8.63;1.80;;;;;;;;;;5002841;28;20053;-83
2023/03/04 02:26:06;;;;;;;5.35;1.05;;;;;;;;;;5016155;28;20030;-83
2023/03/04 02:28:34;;;;;;;4.55;1.30;;;;;;;;;;5019915;28;20108;-83
2023/03/04 02:31:32;;;;;;;13.90;1.23;;;;;;;;;;5014916;28;20136;-83
2023/03/04 02:34:07;;;;;;;9.48;1.55;;;;;;;;;;5029446;28;20496;-83
2023/03/04 02:36:42;;;;;;;6.95;1.25;;;;;;;;;;5027181;28;20124;-83
2023/03/04 02:39:41;;;;;;;4.93;1.25;;;;;;;;;;4999998;28;20029;-83
2023/03/04 02:42:11;;;;;;;11.18;1.55;;;;;;;;;;5000669;28;20445;-83
2023/03/04 02:44:42;;;;;;;8.32;1.60;;;;;;;;;;4999534;28;20105;-83
2023/03/04 02:47:17;;;;;;;8.90;1.70;;;;;;;;;;5004069;28;20056;-83
2023/03/04 02:49:55;;;;;;;7.35;1.40;;;;;;;;;;4998606;28;20606;-83
2023/03/04 02:52:27;;;;;;;6.15;1.20;;;;;;;;;;5015071;28;20137;-83
2023/03/04 02:55:08;;;;;;;13.15;2.40;;;;;;;;;;5025253;28;20056;-83
2023/03/04 02:57:50;;;;;;;5.68;1.42;;;;;;;;;;5006738;28;20041;-83
2023/03/04 03:00:18;;;;;;;4.13;1.05;;;;;;;;;;5026768;28;20572;-83
2023/03/04 03:02:55;;;;;;;10.10;1.38;;;;;;;;;;5012521;28;20049;-83
2023/03/04 03:05:26;;;;;;;9.43;1.48;;;;;;;;;;5011216;28;20041;-83
2023/03/04 03:08:23;;;;;;;7.38;1.17;;;;;;;;;;5027939;28;20046;-83
2023/03/04 03:11:01;;;;;;;11.10;1.45;;;;;;;;;;5001398;28;20084;-83
2023/03/04 03:13:30;;;;;;;7.50;1.42;;;;;;;;;;4989784;28;20057;-83
2023/03/04 03:16:12;;;;;;;4.88;1.30;;;;;;;;;;5024384;28;20096;-83
2023/03/04 03:18:54;;;;;;;8.20;1.65;;;;;;;;;;4985816;28;20052;-83
2023/03/04 03:21:46;;;;;;;9.98;1.25;;;;;;;;;;4998166;28;20030;-83
2023/03/04 03:24:52;;;;;;;4.15;1.33;;;;;;;;;;5016497;28;20037;-83
2023/03/04 03:27:20;;;;;;;8.93;1.45;;;;;;;;;;5010756;28;20034;-83
2023/03/04 03:30:11;;;;;;;4.38;1.20;;;;;;;;;;4999496;28;21601;-83
2023/03/04 03:32:40;;;;;;;8.80;1.40;;;;;;;;;;4998605;28;20049;-83
2023/03/04 03:35:29;;;;;;;12.38;1.40;;;;;;;;;;4997783;28;20052;-83
2023/03/04 03:38:06;;;;;;;4.47;1.30;;;;;;;;;;4998866;28;20096;-83
2023/03/04 03:40:48;;;;;;;2.60;1.02;;;;;;;;;;5017244;28;20072;-83
2023/03/04 03:43:18;;;;;;;10.52;1.90;;;;;;;;;;5016645;28;20041;-83
2023/03/04 03:46:00;;;;;;;4.28;1.00;;;;;;;;;;4982566;28;20121;-83
2023/03/04 03:48:42;;;;;;;7.05;1.13;;;;;;;;;;5008878;28;20103;-83
2023/03/04 03:51:34;;;;;;;6.35;1.40;;;;;;;;;;5000746;28;20037;-83
2023/03/04 03:54:20;;;;;;;5.10;1.15;;;;;;;;;;5017802;28;20092;-83
2023/03/04 03:57:06;;;;;;;6.78;1.15;;;;;;;;;;5002529;28;20081;-83
2023/03/04 03:59:58;;;;;;;8.73;1.25;;;;;;;;;;5017639;28;20564;-83
2023/03/04 04:02:26;;;;;;;8.20;1.95;;;;;;;;;;5026733;28;20042;-83
2023/03/04 04:05:09;;;;;;;11.60;1.90;;;;;;;;;;5027890;28;20048;-83
2023/03/04 04:07:50;;;;;;;6.25;1.40;;;;;;;;;;4982580;28;20045;-83
2023/03/04 04:10:24;;;;;;;4.78;1.30;;;;;;;;;;5010310;28;20052;-83
2023/03/04 04:13:01;;;;;;;6.82;1.27;;;;;;;;;;4996614;28;20048;-84
2023/03/04 04:15:42;;;;;;;10.73;1.20;;;;;;;;;;4986956;28;20045;-83
2023/03/04 04:18:28;;;;;;;7.70;2.00;;;;;;;;;;4995778;28;20041;-83
2023/03/04 04:21:20;;;;;;;7.32;1.80;;;;;;;;;;5014767;28;20048;-83
2023/03/04 04:23:56;;;;;;;8.35;1.50;;;;;;;;;;5015659;28;20037;-83
2023/03/04 04:26:42;;;;;;;8.05;1.40;;;;;;;;;;5025852;28;20049;-83
2023/03/04 04:29:24;;;;;;;8.32;1.10;;;;;;;;;;5016207;28;20045;-83
2023/03/04 04:31:57;;;;;;;7.82;1.60;;;;;;;;;;5011561;28;20128;-83
2023/03/04 04:34:38;;;;;;;6.93;1.05;;;;;;;;;;5024940;28;20033;-83
2023/03/04 04:37:24;;;;;;;7.93;1.20;;;;;;;;;;4994214;28;20041;-83
2023/03/04 04:40:07;;;;;;;6.20;1.42;;;;;;;;;;5016124;28;20037;-83
2023/03/04 04:42:54;;;;;;;8.20;1.10;;;;;;;;;;5012878;28;20038;-83
2023/03/04 04:45:29;;;;;;;4.53;1.13;;;;;;;;;;5014334;28;20049;-83
2023/03/04 04:48:16;;;;;;;2.72;0.80;;;;;;;;;;5015049;28;20081;-83
2023/03/04 04:50:49;;;;;;;8.85;1.50;;;;;;;;;;5025744;28;20061;-83
2023/03/04 04:53:32;;;;;;;12.82;1.35;;;;;;;;;;5025961;28;20112;-83
2023/03/04 04:56:25;;;;;;;4.35;1.17;;;;;;;;;;5012975;28;20037;-83
2023/03/04 04:59:16;;;;;;;10.75;1.38;;;;;;;;;;5002983;28;20030;-83
2023/03/04 05:01:46;;;;;;;7.15;1.42;;;;;;;;;;5013704;28;20048;-83
2023/03/04 05:04:14;;;;;;;8.55;1.27;;;;;;;;;;4986683;28;20136;-83
2023/03/04 05:06:56;;;;;;;6.25;1.38;;;;;;;;;;5029559;28;20042;-83
2023/03/04 05:09:24;;;;;;;10.55;1.15;;;;;;;;;;5001410;28;20041;-84
2023/03/04 05:12:43;;;;;;;9.80;1.00;;;;;;;;;;4996287;28;20080;-83
2023/03/04 05:15:24;;;;;;;12.98;1.95;;;;;;;;;;4984399;28;20041;-83
2023/03/04 05:18:16;;;;;;;8.30;1.65;;;;;;;;;;5015930;28;20479;-84
2023/03/04 05:21:04;;;;;;;10.13;1.42;;;;;;;;;;5026813;28;20040;-83
2023/03/04 05:24:10;;;;;;;8.98;1.15;;;;;;;;;;5017188;28;20038;-83
2023/03/04 05:27:02;;;;;;;8.85;1.35;;;;;;;;;;5006179;28;20050;-83
2023/03/04 05:29:34;;;;;;;12.63;1.45;;;;;;;;;;5025275;28;20136;-83
2023/03/04 05:32:16;;;;;;;16.02;2.15;;;;;;;;;;5015091;28;20041;-83
2023/03/04 05:34:48;;;;;;;10.13;1.65;;;;;;;;;;5015043;28;20046;-83
2023/03/04 05:37:40;;;;;;;5.72;0.90;;;;;;;;;;5019797;28;20090;-83
2023/03/04 05:40:12;;;;;;;12.55;1.65;;;;;;;;;;5029869;28;20037;-84
2023/03/04 05:42:40;;;;;;;8.55;1.85;;;;;;;;;;5036710;28;20046;-83
2023/03/04 05:45:37;;;;;;;8.20;1.58;;;;;;;;;;5023273;28;20188;-83
2023/03/04 05:48:28;;;;;;;14.05;1.75;;;;;;;;;;5035274;28;20055;-83
2023/03/04 05:50:59;;;;;;;18.10;1.75;;;;;;;;;;5022166;28;20431;-83
2023/03/04 05:53:52;;;;;;;14.13;1.98;;;;;;;;;;5023132;28;20037;-83
2023/03/04 05:56:34;;;;;;;14.00;2.30;;;;;;;;;;5005739;28;20054;-83
2023/03/04 05:59:02;;;;;;;16.33;2.35;;;;;;;;;;5021478;28;20396;-83
2023/03/04 06:01:56;;;;;;;9.73;1.52;;;;;;;;;;5034185;28;20034;-83
2023/03/04 06:04:24;;;;;;;13.60;2.38;;;;;;;;;;5022769;28;20046;-83
2023/03/04 06:07:22;;;;;;;5.25;1.02;;;;;;;;;;5019204;28;20046;-83
2023/03/04 06:09:53;;;;;;;15.07;2.45;;;;;;;;;;5012360;28;20041;-83
2023/03/04 06:12:27;;;;;;;13.32;1.83;;;;;;;;;;5018737;28;20120;-83
2023/03/04 06:14:54;;;;;;;14.18;2.00;;;;;;;;;;5000110;28;20045;-83
2023/03/04 06:17:22;;;;;;;7.53;1.50;;;;;;;;;;5005436;28;20510;-83
2023/03/04 06:19:54;;;;;;;10.98;1.40;;;;;;;;;;5032085;28;20044;-83
2023/03/04 06:22:46;;;;;;;8.52;1.95;;;;;;;;;;5020124;28;20424;-83
2023/03/04 06:25:23;;;;;;;17.20;1.85;;;;;;;;;;5004330;28;20041;-84
2023/03/04 06:27:50;;;;;;;9.25;1.33;;;;;;;;;;5032090;28;20049;-83
2023/03/04 06:30:32;;;;;;;17.17;2.05;;;;;;;;;;5012032;28;20030;-83
2023/03/04 06:33:14;;;;;;;9.70;1.80;;;;;;;;;;5011525;28;20106;-83
2023/03/04 06:36:00;;;;;;;10.80;1.90;;;;;;;;;;5014640;28;20041;-83
2023/03/04 06:39:07;;;;;;;11.10;2.58;;;;;;;;;;4988707;28;20412;-83
2023/03/04 06:41:36;;;;;;;12.68;2.13;;;;;;;;;;5020032;28;20034;-83
2023/03/04 06:44:05;;;;;;;15.15;2.33;;;;;;;;;;5016777;28;20052;-83
2023/03/04 06:46:33;;;;;;;7.25;1.55;;;;;;;;;;5030651;28;20128;-83
2023/03/04 06:49:02;;;;;;;8.50;1.77;;;;;;;;;;5015034;28;20053;-84
2023/03/04 06:51:30;;;;;;;9.65;2.38;;;;;;;;;;5002383;28;20037;-83
2023/03/04 06:53:58;;;;;;;18.48;1.98;;;;;;;;;;5016559;28;20042;-83
2023/03/04 06:56:57;;;;;;;14.57;2.00;;;;;;;;;;5031654;28;20040;-83
2023/03/04 06:59:26;;;;;;;16.85;2.53;;;;;;;;;;5018036;28;20050;-83
2023/03/04 07:01:57;;;;;;;15.48;1.88;;;;;;;;;;5019199;28;20060;-83
2023/03/04 07:04:24;;;;;;;14.60;1.98;;;;;;;;;;5018120;28;20581;-83
2023/03/04 07:06:58;;;;;;;16.55;1.65;;;;;;;;;;5018210;28;20137;-83
2023/03/04 07:09:36;;;;;;;13.68;1.80;;;;;;;;;;5013508;28;20045;-83
2023/03/04 07:12:08;;;;;;;10.10;1.50;;;;;;;;;;5014556;28;20075;-83
2023/03/04 07:14:40;;;;;;;20.73;3.13;;;;;;;;;;5017715;28;20124;-83
2023/03/04 07:17:34;;;;;;;10.43;2.40;;;;;;;;;;5016365;28;20045;-83
2023/03/04 07:20:07;;;;;;;10.18;1.58;;;;;;;;;;5014798;28;20476;-83
2023/03/04 07:22:34;;;;;;;11.48;1.83;;;;;;;;;;5027811;28;20196;-83
2023/03/04 07:25:16;;;;;;;10.95;2.10;;;;;;;;;;4990589;28;20241;-83
2023/03/04 07:27:58;;;;;;;13.05;1.27;;;;;;;;;;5016675;28;20038;-84
2023/03/04 07:30:40;;;;;;;12.00;1.25;;;;;;;;;;5016699;28;20168;-84
2023/03/04 07:33:30;;;;;;;5.72;1.27;;;;;;;;;;5026920;28;20088;-83
2023/03/04 07:36:38;;;;;;;19.52;2.17;;;;;;;;;;5006344;28;20161;-83
2023/03/04 07:40:02;;;;;;;10.88;1.55;;;;;;;;;;5014968;28;20504;-83
2023/03/04 07:43:11;;;;;;;9.77;1.15;;;;;;;;;;5033168;28;20173;-83
2023/03/04 07:45:48;;;;;;;13.52;1.45;;;;;;;;;;4998640;28;20169;-83
2023/03/04 07:48:16;;;;;;;12.73;1.45;;;;;;;;;;5015441;28;20616;-82
2023/03/04 07:50:48;;;;;;;11.15;2.28;;;;;;;;;;5003894;28;20038;-83
2023/03/04 07:53:16;;;;;;;8.80;1.95;;;;;;;;;;5020334;28;20042;-83
2023/03/04 07:55:48;;;;;;;17.15;2.17;;;;;;;;;;5020500;28;20503;-83
2023/03/04 07:58:19;;;;;;;14.23;2.25;;;;;;;;;;5018361;28;20085;-83
2023/03/04 08:01:21;;;;;;;11.23;1.88;;;;;;;;;;5012048;28;20164;-82
2023/03/04 08:03:50;;;;;;;19.23;2.00;;;;;;;;;;5018667;28;20467;-83
2023/03/04 08:06:19;;;;;;;18.42;1.90;;;;;;;;;;5018753;28;20073;-83
2023/03/04 08:09:12;;;;;;;16.58;1.90;;;;;;;;;;5003191;28;20042;-83
2023/03/04 08:11:41;;;;;;;13.45;2.00;;;;;;;;;;4998039;28;20057;-83
2023/03/04 08:14:27;;;;;;;10.98;2.33;;;;;;;;;;5004640;28;20041;-83
2023/03/04 08:16:54;;;;;;;13.98;1.83;;;;;;;;;;5031041;28;20060;-83
2023/03/04 08:19:22;;;;;;;19.75;2.25;;;;;;;;;;5004711;28;20045;-83
2023/03/04 08:21:56;;;;;;;16.33;2.33;;;;;;;;;;5018266;28;20041;-83
2023/03/04 08:24:42;;;;;;;10.18;1.90;;;;;;;;;;4998174;28;20572;-83
2023/03/04 08:27:13;;;;;;;12.23;2.13;;;;;;;;;;5016368;28;20045;-83
2023/03/04 08:29:43;;;;;;;11.55;1.70;;;;;;;;;;5012664;28;20501;-83
2023/03/04 08:32:29;;;;;;;7.28;1.88;;;;;;;;;;4984776;28;20042;-83
2023/03/04 08:35:10;;;;;;;16.55;2.10;;;;;;;;;;5015553;28;20049;-82
2023/03/04 08:40:53;;;;;;;15.65;2.25;;;;;;;;;;5015532;28;20041;-82
2023/03/04 08:43:43;;;;;;;16.85;1.80;;;;;;;;;;5011116;28;20136;-82
2023/03/04 08:46:38;;;;;;;14.25;2.13;;;;;;;;;;5017194;28;20036;-82
2023/03/04 08:49:07;;;;;;;18.30;2.45;;;;;;;;;;5000295;28;20033;-82
2023/03/04 08:51:34;;;;;;;13.93;1.80;;;;;;;;;;4988917;28;20046;-82
2023/03/04 08:54:03;;;;;;;17.85;2.53;;;;;;;;;;5013424;28;20050;-82
2023/03/04 08:56:58;;;;;;;9.82;1.83;;;;;;;;;;5026420;28;20717;-82
2023/03/04 08:59:34;;;;;;;14.65;1.98;;;;;;;;;;5017001;28;20041;-83
2023/03/04 09:02:20;;;;;;;17.13;2.60;;;;;;;;;;5017268;28;20997;-83
2023/03/04 09:04:48;;;;;;;12.48;2.17;;;;;;;;;;5012837;28;20048;-82
2023/03/04 09:07:16;;;;;;;15.73;3.00;;;;;;;;;;5014409;28;20125;-82
2023/03/04 09:10:10;;;;;;;13.85;1.85;;;;;;;;;;5027506;28;20411;-83
2023/03/04 09:12:45;;;;;;;14.65;2.00;;;;;;;;;;4999299;28;21797;-82
2023/03/04 09:15:43;;;;;;;20.55;3.50;;;;;;;;;;5024709;28;20052;-83
2023/03/04 09:18:18;;;;;;;17.90;2.58;;;;;;;;;;5016738;28;20034;-83
2023/03/04 09:20:50;;;;;;;8.05;1.70;;;;;;;;;;5019112;28;20426;-83
2023/03/04 09:23:18;;;;;;;19.40;2.30;;;;;;;;;;5041447;28;20047;-83
2023/03/04 09:25:48;;;;;;;11.05;2.03;;;;;;;;;;5053165;28;20041;-82
2023/03/04 09:28:21;;;;;;;15.45;2.00;;;;;;;;;;5022342;28;20057;-83
2023/03/04 09:31:10;;;;;;;25.10;2.67;;;;;;;;;;5025948;28;20039;-83
2023/03/04 09:33:40;;;;;;;12.23;2.70;;;;;;;;;;5005524;28;20594;-83
2023/03/04 09:36:34;;;;;;;11.15;2.15;;;;;;;;;;5050556;28;20052;-83
2023/03/04 09:39:07;;;;;;;15.68;2.15;;;;;;;;;;5035341;28;20422;-83
2023/03/04 09:41:43;;;;;;;10.70;2.13;;;;;;;;;;5041708;28;20044;-83
2023/03/04 09:44:13;;;;;;;17.45;2.38;;;;;;;;;;5058077;28;20049;-83
2023/03/04 09:46:47;;;;;;;11.98;1.90;;;;;;;;;;5039731;28;20054;-83
2023/03/04 09:49:18;;;;;;;8.55;2.15;;;;;;;;;;5058852;28;20040;-83
2023/03/04 09:52:06;;;;;;;18.83;2.42;;;;;;;;;;5044597;28;20434;-82
2023/03/04 09:55:03;;;;;;;25.85;2.60;;;;;;;;;;5059585;28;20033;-82
2023/03/04 09:57:41;;;;;;;14.98;1.73;;;;;;;;;;4984239;28;20058;-82
2023/03/04 10:00:18;;;;;;;12.65;1.88;;;;;;;;;;4975026;28;20081;-82
2023/03/04 10:03:02;;;;;;;17.98;2.55;;;;;;;;;;4979563;28;20062;-82
2023/03/04 10:05:55;;;;;;;14.93;2.20;;;;;;;;;;4978069;28;20062;-82
2023/03/04 10:08:51;;;;;;;10.77;1.80;;;;;;;;;;4969530;28;20063;-83
2023/03/04 10:11:38;;;;;;;11.38;2.20;;;;;;;;;;4981980;28;20038;-82
2023/03/04 10:14:36;;;;;;;13.70;2.67;;;;;;;;;;4981536;28;20058;-83
2023/03/04 10:17:16;;;;;;;13.15;1.95;;;;;;;;;;4982852;28;20092;-82
2023/03/04 10:20:13;;;;;;;12.52;2.10;;;;;;;;;;4980275;28;20500;-83
2023/03/04 10:22:50;;;;;;;13.05;2.45;;;;;;;;;;4978052;28;20159;-83
2023/03/04 10:25:32;;;;;;;13.07;2.22;;;;;;;;;;4983276;28;20050;-83
2023/03/04 10:28:10;;;;;;;13.85;2.97;;;;;;;;;;4979151;28;20050;-83
2023/03/04 10:31:03;;;;;;;13.88;2.03;;;;;;;;;;4980208;28;20124;-83
2023/03/04 10:33:38;;;;;;;10.90;1.70;;;;;;;;;;4988209;28;20082;-83
2023/03/04 10:36:14;;;;;;;14.65;2.13;;;;;;;;;;5037561;28;20048;-83
2023/03/04 10:38:43;;;;;;;15.65;2.03;;;;;;;;;;5037665;28;20044;-83
2023/03/04 10:41:41;;;;;;;12.88;1.80;;;;;;;;;;5048811;28;20529;-83
2023/03/04 10:44:17;;;;;;;15.20;2.13;;;;;;;;;;5035975;28;20037;-83
2023/03/04 10:47:34;;;;;;;9.52;2.13;;;;;;;;;;5037998;28;20632;-82
2023/03/04 10:50:28;;;;;;;16.15;2.38;;;;;;;;;;5049564;28;20144;-83
2023/03/04 10:52:56;;;;;;;10.32;2.25;;;;;;;;;;5036476;28;20033;-82
2023/03/04 10:55:29;;;;;;;21.15;2.28;;;;;;;;;;5037166;28;20034;-83
2023/03/04 10:58:03;;;;;;;13.57;1.67;;;;;;;;;;5051535;28;20471;-83
2023/03/04 11:00:33;;;;;;;12.75;1.95;;;;;;;;;;5032622;28;20049;-83
2023/03/04 11:03:45;;;;;;;16.23;2.40;;;;;;;;;;5019576;28;20051;-83
2023/03/04 11:06:40;;;;;;;12.50;1.88;;;;;;;;;;5021799;28;20060;-83
2023/03/04 11:09:30;;;;;;;14.30;2.13;;;;;;;;;;5038810;28;20041;-82
2023/03/04 11:12:20;;;;;;;14.10;1.90;;;;;;;;;;5038744;28;20049;-83
2023/03/04 11:14:51;;;;;;;17.38;2.50;;;;;;;;;;5020045;28;20463;-83
2023/03/04 11:17:20;;;;;;;17.05;2.65;;;;;;;;;;5050005;28;20037;-83
2023/03/04 11:20:17;;;;;;;14.68;2.88;;;;;;;;;;5036035;28;20045;-83
2023/03/04 11:22:53;;;;;;;15.18;1.90;;;;;;;;;;5033852;28;20877;-83
2023/03/04 11:25:31;;;;;;;19.55;2.63;;;;;;;;;;5051798;28;20079;-83
2023/03/04 11:28:26;;;;;;;16.80;2.17;;;;;;;;;;5037658;28;20038;-83
2023/03/04 11:30:58;;;;;;;22.85;2.08;;;;;;;;;;5037150;28;20594;-83
2023/03/04 11:33:52;;;;;;;12.40;2.30;;;;;;;;;;5033192;28;20537;-82
2023/03/04 11:36:45;;;;;;;11.65;2.03;;;;;;;;;;5021590;28;20044;-82
2023/03/04 11:39:35;;;;;;;13.30;2.35;;;;;;;;;;5019951;28;20039;-82
2023/03/04 11:42:53;;;;;;;18.85;2.90;;;;;;;;;;5037364;28;20029;-82
2023/03/04 11:45:44;;;;;;;10.10;1.65;;;;;;;;;;5049840;28;20044;-82
2023/03/04 11:49:11;;;;;;;15.30;1.95;;;;;;;;;;5037860;28;20575;-82
2023/03/04 11:51:51;;;;;;;18.17;2.05;;;;;;;;;;5056387;28;20466;-83
2023/03/04 11:54:56;;;;;;;14.55;1.65;;;;;;;;;;5038728;28;20135;-83
2023/03/04 11:58:22;;;;;;;9.80;2.55;;;;;;;;;;5043850;28;20483;-82
2023/03/04 12:01:11;;;;;;;10.05;1.75;;;;;;;;;;5036464;28;20041;-84
2023/03/04 12:04:01;;;;;;;16.33;2.17;;;;;;;;;;5048660;28;20135;-83
2023/03/04 12:06:59;;;;;;;13.50;1.95;;;;;;;;;;5039627;28;20050;-83
2023/03/04 12:09:32;;;;;;;12.10;1.65;;;;;;;;;;5054957;28;20037;-82
2023/03/04 12:12:36;;;;;;;8.93;2.05;;;;;;;;;;5037189;28;20044;-84
2023/03/04 12:16:00;;;;;;;17.02;2.42;;;;;;;;;;5036421;28;20040;-83
2023/03/04 12:18:39;;;;;;;11.48;2.20;;;;;;;;;;5031228;28;20041;-83
2023/03/04 12:21:50;;;;;;;10.68;1.65;;;;;;;;;;5038219;28;20064;-82
2023/03/04 12:25:02;;;;;;;14.13;2.10;;;;;;;;;;5022126;28;20082;-82
2023/03/04 12:28:08;;;;;;;17.42;2.00;;;;;;;;;;5035214;28;20041;-83
2023/03/04 12:31:02;;;;;;;10.00;1.70;;;;;;;;;;5018908;28;20045;-83
2023/03/04 12:33:53;;;;;;;14.13;1.98;;;;;;;;;;5046491;28;20056;-83
2023/03/04 12:37:48;;;;;;;11.63;1.75;;;;;;;;;;5037274;28;20038;-83
2023/03/04 12:41:15;;;;;;;15.90;2.20;;;;;;;;;;5035572;28;20398;-83
2023/03/04 12:44:23;;;;;;;15.73;1.98;;;;;;;;;;5035617;28;20037;-83
2023/03/04 12:47:26;;;;;;;16.15;1.90;;;;;;;;;;4977522;28;20996;-83
2023/03/04 12:50:39;;;;;;;15.30;2.00;;;;;;;;;;4958062;28;20417;-83
2023/03/04 12:53:32;;;;;;;18.73;1.85;;;;;;;;;;4990725;28;20046;-83
2023/03/04 12:56:02;;;;;;;10.40;2.40;;;;;;;;;;4993983;28;20046;-83
2023/03/04 12:58:44;;;;;;;10.90;2.03;;;;;;;;;;4988306;28;20050;-83
2023/03/04 13:01:28;;;;;;;10.43;2.10;;;;;;;;;;4994465;28;20038;-83
2023/03/04 13:04:17;;;;;;;13.45;1.40;;;;;;;;;;4948778;28;20445;-83
2023/03/04 13:07:29;;;;;;;12.95;1.40;;;;;;;;;;4954771;28;20046;-83
2023/03/04 13:10:04;;;;;;;11.73;1.50;;;;;;;;;;4977533;28;20145;-83
2023/03/04 13:13:23;;;;;;;8.85;1.33;;;;;;;;;;4980132;28;20458;-83
2023/03/04 13:16:10;;;;;;;16.30;2.20;;;;;;;;;;4970949;28;20053;-83
2023/03/04 13:18:52;;;;;;;14.25;1.77;;;;;;;;;;4994025;28;20489;-83
2023/03/04 13:21:33;;;;;;;13.55;2.95;;;;;;;;;;4974114;28;20042;-83
2023/03/04 13:24:53;;;;;;;14.05;2.67;;;;;;;;;;5023162;28;20111;-83
2023/03/04 13:27:48;;;;;;;16.45;2.15;;;;;;;;;;5033444;28;20507;-83
2023/03/04 13:30:54;;;;;;;10.73;1.73;;;;;;;;;;5024582;28;20064;-84
2023/03/04 13:34:05;;;;;;;11.50;2.00;;;;;;;;;;4957441;28;20471;-83
2023/03/04 13:36:54;;;;;;;16.27;2.38;;;;;;;;;;4987950;28;20038;-83
2023/03/04 13:39:35;;;;;;;15.13;2.08;;;;;;;;;;4962496;28;21026;-84
2023/03/04 13:42:38;;;;;;;15.35;1.90;;;;;;;;;;4982920;28;20130;-84
2023/03/04 13:45:34;;;;;;;8.60;2.00;;;;;;;;;;4979674;28;20575;-83
2023/03/04 13:48:24;;;;;;;8.55;1.60;;;;;;;;;;4993127;28;20540;-83
2023/03/04 13:50:52;;;;;;;14.32;2.38;;;;;;;;;;4992619;28;20061;-84
2023/03/04 13:53:56;;;;;;;15.23;2.45;;;;;;;;;;4979806;28;20128;-84
2023/03/04 13:56:46;;;;;;;11.13;2.33;;;;;;;;;;4979801;28;20440;-84
2023/03/04 13:59:31;;;;;;;14.57;1.77;;;;;;;;;;4979527;28;20181;-84
2023/03/04 14:03:02;;;;;;;17.23;2.63;;;;;;;;;;4976636;28;20042;-86
2023/03/04 14:06:49;;;;;;;11.43;1.95;;;;;;;;;;4994345;28;20061;-84
2023/03/04 14:10:10;;;;;;;10.10;1.70;;;;;;;;;;5004295;28;20512;-85
2023/03/04 14:13:17;;;;;;;10.05;1.90;;;;;;;;;;5039252;28;20041;-84
2023/03/04 14:16:21;;;;;;;11.48;1.95;;;;;;;;;;5034369;28;21496;-84
2023/03/04 14:19:46;;;;;;;11.88;1.98;;;;;;;;;;5032305;28;21439;-83
2023/03/04 14:26:09;;;;;;;12.77;2.13;;;;;;;;;;5039248;28;19925;-84
2023/03/04 14:29:29;;;;;;;6.60;2.03;;;;;;;;;;4999243;28;20045;-84
2023/03/04 14:32:20;;;;;;;14.57;2.58;;;;;;;;;;5036954;28;20035;-83
2023/03/04 14:35:27;;;;;;;11.25;2.22;;;;;;;;;;5047096;28;20683;-84
2023/03/04 14:38:22;;;;;;;14.23;1.92;;;;;;;;;;5011709;28;20050;-84
2023/03/04 14:40:56;;;;;;;13.75;2.00;;;;;;;;;;5039178;28;20407;-83
2023/03/04 14:43:26;;;;;;;11.18;2.05;;;;;;;;;;5052054;28;20045;-83
2023/03/04 14:46:15;;;;;;;8.18;1.88;;;;;;;;;;5035802;28;20041;-83
2023/03/04 14:49:11;;;;;;;14.40;1.98;;;;;;;;;;5049835;28;20115;-83
2023/03/04 14:51:55;;;;;;;8.05;1.60;;;;;;;;;;5017670;28;20040;-83
2023/03/04 14:54:39;;;;;;;10.95;1.52;;;;;;;;;;5051183;28;20045;-83
2023/03/04 14:57:20;;;;;;;10.60;1.88;;;;;;;;;;5034026;28;20037;-83
2023/03/04 14:59:48;;;;;;;7.78;1.33;;;;;;;;;;5038049;28;20540;-83
2023/03/04 15:02:23;;;;;;;5.63;1.60;;;;;;;;;;5050432;28;20033;-83
2023/03/04 15:04:50;;;;;;;9.40;1.52;;;;;;;;;;5036120;28;20045;-83
2023/03/04 15:07:35;;;;;;;6.95;1.58;;;;;;;;;;5022620;28;20125;-84
2023/03/04 15:10:11;;;;;;;7.00;1.30;;;;;;;;;;5038072;28;20040;-84
2023/03/04 15:12:38;;;;;;;10.48;1.77;;;;;;;;;;5047776;28;20029;-83
2023/03/04 15:15:48;;;;;;;11.13;2.40;;;;;;;;;;5036934;28;20037;-83
2023/03/04 15:18:25;;;;;;;10.52;1.73;;;;;;;;;;5015711;28;20479;-83
2023/03/04 15:21:18;;;;;;;18.35;2.22;;;;;;;;;;5022653;28;20033;-83
2023/03/04 15:23:46;;;;;;;9.75;1.75;;;;;;;;;;5037346;28;20499;-83
2023/03/04 15:26:40;;;;;;;10.38;1.58;;;;;;;;;;5039155;28;20036;-84
2023/03/04 15:29:19;;;;;;;14.60;1.95;;;;;;;;;;5052284;28;20046;-83
2023/03/04 15:31:47;;;;;;;14.30;1.80;;;;;;;;;;5038316;28;20064;-83
2023/03/04 15:34:18;;;;;;;8.18;1.60;;;;;;;;;;5037239;28;20047;-83
2023/03/04 15:36:49;;;;;;;12.30;1.40;;;;;;;;;;5038802;28;20037;-83
2023/03/04 15:39:18;;;;;;;19.88;2.33;;;;;;;;;;5037437;28;20491;-83
2023/03/04 15:41:47;;;;;;;9.55;1.67;;;;;;;;;;5038277;28;20044;-83
2023/03/04 15:44:16;;;;;;;12.43;1.83;;;;;;;;;;5035355;28;20131;-84
2023/03/04 15:46:48;;;;;;;16.45;2.00;;;;;;;;;;5036025;28;20498;-83
2023/03/04 15:49:20;;;;;;;15.43;1.90;;;;;;;;;;5039615;28;20037;-84
2023/03/04 15:51:53;;;;;;;8.48;1.33;;;;;;;;;;5041255;28;20040;-84
2023/03/04 15:54:27;;;;;;;10.65;2.00;;;;;;;;;;5042724;28;20061;-83
2023/03/04 15:56:58;;;;;;;16.50;2.00;;;;;;;;;;5041721;28;20037;-84
2023/03/04 15:59:26;;;;;;;8.45;1.77;;;;;;;;;;5054564;28;20039;-83
2023/03/04 16:01:58;;;;;;;12.02;1.50;;;;;;;;;;5051652;28;20037;-83
2023/03/04 16:04:37;;;;;;;9.40;2.17;;;;;;;;;;5037624;28;20389;-84
2023/03/04 16:07:18;;;;;;;11.18;1.90;;;;;;;;;;5050702;28;20043;-83
2023/03/04 16:09:54;;;;;;;8.18;1.77;;;;;;;;;;5035598;28;20416;-83
2023/03/04 16:12:51;;;;;;;12.30;1.77;;;;;;;;;;5042830;28;20056;-83
2023/03/04 16:15:23;;;;;;;10.80;1.55;;;;;;;;;;5046402;28;20068;-83
2023/03/04 16:17:50;;;;;;;11.70;2.35;;;;;;;;;;5037092;28;20075;-83
2023/03/04 16:20:21;;;;;;;9.68;2.10;;;;;;;;;;5050506;28;20037;-83
2023/03/04 16:22:54;;;;;;;11.05;1.73;;;;;;;;;;5048607;28;20061;-83
2023/03/04 16:25:48;;;;;;;10.38;2.38;;;;;;;;;;5057423;28;20035;-83
2023/03/04 16:28:16;;;;;;;9.18;1.30;;;;;;;;;;5038943;28;20036;-83
2023/03/04 16:30:45;;;;;;;11.60;1.30;;;;;;;;;;5054243;28;20442;-83
2023/03/04 16:33:14;;;;;;;8.05;1.58;;;;;;;;;;5039809;28;20052;-83
2023/03/04 16:35:46;;;;;;;10.80;1.60;;;;;;;;;;5054075;28;20130;-83
2023/03/04 16:38:24;;;;;;;8.52;1.50;;;;;;;;;;5055925;28;20069;-82
2023/03/04 16:40:54;;;;;;;5.97;1.20;;;;;;;;;;5041195;28;20045;-83
2023/03/04 16:43:23;;;;;;;12.98;1.73;;;;;;;;;;5053911;28;20049;-83
2023/03/04 16:45:50;;;;;;;10.00;1.75;;;;;;;;;;5040627;28;20063;-83
2023/03/04 16:48:19;;;;;;;12.65;1.90;;;;;;;;;;5040434;28;20491;-83